sensor_id;sensor_type;location;lat;lon;timestamp;temperature;humidity
70184;DHT22;57554;51.546;6.776;2023-08-21T00:02:23;20.40;64.90
70184;DHT22;57554;51.546;6.776;2023-08-21T00:04:50;20.50;65.00
70184;DHT22;57554;51.546;6.776;2023-08-21T00:07:16;20.50;64.80
70184;DHT22;57554;51.546;6.776;2023-08-21T00:09:41;20.50;64.80
70184;DHT22;57554;51.546;6.776;2023-08-21T00:12:08;20.50;64.60
70184;DHT22;57554;51.546;6.776;2023-08-21T00:14:34;20.50;64.60
70184;DHT22;57554;51.546;6.776;2023-08-21T00:17:01;20.40;64.60
70184;DHT22;57554;51.546;6.776;2023-08-21T00:19:26;20.40;64.40
70184;DHT22;57554;51.546;6.776;2023-08-21T00:21:52;20.40;64.30
70184;DHT22;57554;51.546;6.776;2023-08-21T00:24:17;20.40;64.30
70184;DHT22;57554;51.546;6.776;2023-08-21T00:26:43;20.40;64.50
70184;DHT22;57554;51.546;6.776;2023-08-21T00:29:08;20.40;64.70
70184;DHT22;57554;51.546;6.776;2023-08-21T00:31:34;20.40;64.70
70184;DHT22;57554;51.546;6.776;2023-08-21T00:33:59;20.40;64.70
70184;DHT22;57554;51.546;6.776;2023-08-21T00:36:25;20.40;64.90
70184;DHT22;57554;51.546;6.776;2023-08-21T00:38:50;20.40;65.00
70184;DHT22;57554;51.546;6.776;2023-08-21T00:41:16;20.30;64.90
70184;DHT22;57554;51.546;6.776;2023-08-21T00:43:41;20.30;65.00
70184;DHT22;57554;51.546;6.776;2023-08-21T00:46:07;20.30;65.00
70184;DHT22;57554;51.546;6.776;2023-08-21T00:48:33;20.30;65.00
70184;DHT22;57554;51.546;6.776;2023-08-21T00:50:59;20.30;65.10
70184;DHT22;57554;51.546;6.776;2023-08-21T00:53:25;20.30;65.00
70184;DHT22;57554;51.546;6.776;2023-08-21T00:55:50;20.30;64.90
70184;DHT22;57554;51.546;6.776;2023-08-21T00:58:17;20.30;64.90
70184;DHT22;57554;51.546;6.776;2023-08-21T01:00:45;20.20;64.90
70184;DHT22;57554;51.546;6.776;2023-08-21T01:03:10;20.20;64.90
70184;DHT22;57554;51.546;6.776;2023-08-21T01:05:36;20.20;64.80
70184;DHT22;57554;51.546;6.776;2023-08-21T01:08:10;20.20;64.90
70184;DHT22;57554;51.546;6.776;2023-08-21T01:13:11;20.10;65.20
70184;DHT22;57554;51.546;6.776;2023-08-21T01:15:41;20.10;65.20
70184;DHT22;57554;51.546;6.776;2023-08-21T01:18:09;20.10;65.20
70184;DHT22;57554;51.546;6.776;2023-08-21T01:20:35;20.20;65.10
70184;DHT22;57554;51.546;6.776;2023-08-21T01:23:04;20.20;65.10
70184;DHT22;57554;51.546;6.776;2023-08-21T01:25:31;20.20;65.00
70184;DHT22;57554;51.546;6.776;2023-08-21T01:27:57;20.20;65.00
70184;DHT22;57554;51.546;6.776;2023-08-21T01:30:23;20.20;64.90
70184;DHT22;57554;51.546;6.776;2023-08-21T01:33:10;20.20;64.70
70184;DHT22;57554;51.546;6.776;2023-08-21T01:35:38;20.10;64.60
70184;DHT22;57554;51.546;6.776;2023-08-21T01:38:04;20.10;64.60
70184;DHT22;57554;51.546;6.776;2023-08-21T01:40:30;20.10;64.60
70184;DHT22;57554;51.546;6.776;2023-08-21T01:42:56;20.10;64.60
70184;DHT22;57554;51.546;6.776;2023-08-21T01:45:22;20.00;64.70
70184;DHT22;57554;51.546;6.776;2023-08-21T01:47:47;20.00;64.70
70184;DHT22;57554;51.546;6.776;2023-08-21T01:50:13;20.00;64.80
70184;DHT22;57554;51.546;6.776;2023-08-21T01:52:39;20.00;65.00
70184;DHT22;57554;51.546;6.776;2023-08-21T01:55:05;20.00;65.10
70184;DHT22;57554;51.546;6.776;2023-08-21T01:57:33;19.90;65.20
70184;DHT22;57554;51.546;6.776;2023-08-21T01:59:58;19.90;65.30
70184;DHT22;57554;51.546;6.776;2023-08-21T02:02:24;19.90;65.50
70184;DHT22;57554;51.546;6.776;2023-08-21T02:04:49;19.80;65.50
70184;DHT22;57554;51.546;6.776;2023-08-21T02:07:15;19.80;65.60
70184;DHT22;57554;51.546;6.776;2023-08-21T02:09:40;19.80;65.60
70184;DHT22;57554;51.546;6.776;2023-08-21T02:12:06;19.80;65.60
70184;DHT22;57554;51.546;6.776;2023-08-21T02:14:32;19.70;65.70
70184;DHT22;57554;51.546;6.776;2023-08-21T02:16:57;19.70;65.60
70184;DHT22;57554;51.546;6.776;2023-08-21T02:19:23;19.70;65.60
70184;DHT22;57554;51.546;6.776;2023-08-21T02:21:48;19.70;65.70
70184;DHT22;57554;51.546;6.776;2023-08-21T02:24:14;19.70;65.70
70184;DHT22;57554;51.546;6.776;2023-08-21T02:26:39;19.70;65.80
70184;DHT22;57554;51.546;6.776;2023-08-21T02:29:05;19.70;65.80
70184;DHT22;57554;51.546;6.776;2023-08-21T02:31:30;19.70;65.80
70184;DHT22;57554;51.546;6.776;2023-08-21T02:33:56;19.60;65.90
70184;DHT22;57554;51.546;6.776;2023-08-21T02:36:22;19.60;65.80
70184;DHT22;57554;51.546;6.776;2023-08-21T02:38:47;19.60;65.90
70184;DHT22;57554;51.546;6.776;2023-08-21T02:41:13;19.60;65.90
70184;DHT22;57554;51.546;6.776;2023-08-21T02:43:38;19.70;65.90
70184;DHT22;57554;51.546;6.776;2023-08-21T02:46:04;19.70;65.80
70184;DHT22;57554;51.546;6.776;2023-08-21T02:48:29;19.70;65.70
70184;DHT22;57554;51.546;6.776;2023-08-21T02:50:55;19.70;65.60
70184;DHT22;57554;51.546;6.776;2023-08-21T02:53:20;19.80;65.50
70184;DHT22;57554;51.546;6.776;2023-08-21T02:55:46;19.80;65.50
70184;DHT22;57554;51.546;6.776;2023-08-21T02:58:11;19.80;65.50
70184;DHT22;57554;51.546;6.776;2023-08-21T03:00:37;19.80;65.40
70184;DHT22;57554;51.546;6.776;2023-08-21T03:03:03;19.80;65.30
70184;DHT22;57554;51.546;6.776;2023-08-21T03:05:29;19.70;65.20
70184;DHT22;57554;51.546;6.776;2023-08-21T03:07:55;19.70;65.20
70184;DHT22;57554;51.546;6.776;2023-08-21T03:10:20;19.70;65.10
70184;DHT22;57554;51.546;6.776;2023-08-21T03:12:48;19.70;65.10
70184;DHT22;57554;51.546;6.776;2023-08-21T03:15:13;19.70;65.20
70184;DHT22;57554;51.546;6.776;2023-08-21T03:17:39;19.70;65.10
70184;DHT22;57554;51.546;6.776;2023-08-21T03:20:05;19.70;65.10
70184;DHT22;57554;51.546;6.776;2023-08-21T03:22:30;19.70;65.10
70184;DHT22;57554;51.546;6.776;2023-08-21T03:24:57;19.70;65.20
70184;DHT22;57554;51.546;6.776;2023-08-21T03:27:24;19.70;65.30
70184;DHT22;57554;51.546;6.776;2023-08-21T03:29:49;19.70;65.30
70184;DHT22;57554;51.546;6.776;2023-08-21T03:32:16;19.70;65.40
70184;DHT22;57554;51.546;6.776;2023-08-21T03:34:41;19.60;65.50
70184;DHT22;57554;51.546;6.776;2023-08-21T03:37:07;19.60;65.50
70184;DHT22;57554;51.546;6.776;2023-08-21T03:39:33;19.60;65.50
70184;DHT22;57554;51.546;6.776;2023-08-21T03:41:59;19.50;65.50
70184;DHT22;57554;51.546;6.776;2023-08-21T03:44:24;19.50;65.50
70184;DHT22;57554;51.546;6.776;2023-08-21T03:46:50;19.50;65.50
70184;DHT22;57554;51.546;6.776;2023-08-21T03:49:15;19.50;65.60
70184;DHT22;57554;51.546;6.776;2023-08-21T03:51:41;19.50;65.60
70184;DHT22;57554;51.546;6.776;2023-08-21T03:54:06;19.50;65.50
70184;DHT22;57554;51.546;6.776;2023-08-21T03:56:32;19.40;65.50
70184;DHT22;57554;51.546;6.776;2023-08-21T03:58:57;19.40;65.50
70184;DHT22;57554;51.546;6.776;2023-08-21T04:01:23;19.40;65.50
70184;DHT22;57554;51.546;6.776;2023-08-21T04:03:49;19.40;65.40
70184;DHT22;57554;51.546;6.776;2023-08-21T04:06:14;19.40;65.40
70184;DHT22;57554;51.546;6.776;2023-08-21T04:08:40;19.30;65.30
70184;DHT22;57554;51.546;6.776;2023-08-21T04:11:06;19.30;65.40
70184;DHT22;57554;51.546;6.776;2023-08-21T04:13:32;19.40;65.50
70184;DHT22;57554;51.546;6.776;2023-08-21T04:15:57;19.40;65.50
70184;DHT22;57554;51.546;6.776;2023-08-21T04:18:23;19.40;65.40
70184;DHT22;57554;51.546;6.776;2023-08-21T04:20:49;19.40;65.40
70184;DHT22;57554;51.546;6.776;2023-08-21T04:23:15;19.40;65.40
70184;DHT22;57554;51.546;6.776;2023-08-21T04:25:40;19.40;65.60
70184;DHT22;57554;51.546;6.776;2023-08-21T04:28:06;19.40;65.70
70184;DHT22;57554;51.546;6.776;2023-08-21T04:30:33;19.40;65.80
70184;DHT22;57554;51.546;6.776;2023-08-21T04:32:59;19.40;65.90
70184;DHT22;57554;51.546;6.776;2023-08-21T04:35:24;19.40;65.80
70184;DHT22;57554;51.546;6.776;2023-08-21T04:37:50;19.40;65.80
70184;DHT22;57554;51.546;6.776;2023-08-21T04:40:16;19.40;65.70
70184;DHT22;57554;51.546;6.776;2023-08-21T04:42:43;19.50;65.80
70184;DHT22;57554;51.546;6.776;2023-08-21T04:45:09;19.50;65.70
70184;DHT22;57554;51.546;6.776;2023-08-21T04:47:35;19.50;65.70
70184;DHT22;57554;51.546;6.776;2023-08-21T04:50:00;19.50;65.70
70184;DHT22;57554;51.546;6.776;2023-08-21T04:52:26;19.50;65.70
70184;DHT22;57554;51.546;6.776;2023-08-21T04:54:52;19.50;65.70
70184;DHT22;57554;51.546;6.776;2023-08-21T04:57:18;19.50;65.80
70184;DHT22;57554;51.546;6.776;2023-08-21T04:59:44;19.50;65.90
70184;DHT22;57554;51.546;6.776;2023-08-21T05:02:10;19.50;65.80
70184;DHT22;57554;51.546;6.776;2023-08-21T05:04:38;19.50;65.90
70184;DHT22;57554;51.546;6.776;2023-08-21T05:07:04;19.50;66.00
70184;DHT22;57554;51.546;6.776;2023-08-21T05:09:31;19.50;66.00
70184;DHT22;57554;51.546;6.776;2023-08-21T05:11:56;19.50;66.10
70184;DHT22;57554;51.546;6.776;2023-08-21T05:14:22;19.60;66.10
70184;DHT22;57554;51.546;6.776;2023-08-21T05:16:51;19.60;66.10
70184;DHT22;57554;51.546;6.776;2023-08-21T05:19:17;19.60;66.20
70184;DHT22;57554;51.546;6.776;2023-08-21T05:21:43;19.60;66.20
70184;DHT22;57554;51.546;6.776;2023-08-21T05:24:09;19.60;66.30
70184;DHT22;57554;51.546;6.776;2023-08-21T05:26:38;19.60;66.40
70184;DHT22;57554;51.546;6.776;2023-08-21T05:29:03;19.60;66.50
70184;DHT22;57554;51.546;6.776;2023-08-21T05:31:29;19.60;66.50
70184;DHT22;57554;51.546;6.776;2023-08-21T05:33:55;19.60;66.60
70184;DHT22;57554;51.546;6.776;2023-08-21T05:36:21;19.70;66.70
70184;DHT22;57554;51.546;6.776;2023-08-21T05:38:46;19.70;66.70
70184;DHT22;57554;51.546;6.776;2023-08-21T05:41:13;19.70;66.80
70184;DHT22;57554;51.546;6.776;2023-08-21T05:43:39;19.70;66.70
70184;DHT22;57554;51.546;6.776;2023-08-21T05:46:07;19.70;66.70
70184;DHT22;57554;51.546;6.776;2023-08-21T05:48:33;19.70;66.90
70184;DHT22;57554;51.546;6.776;2023-08-21T05:50:59;19.80;67.00
70184;DHT22;57554;51.546;6.776;2023-08-21T05:53:25;19.90;67.30
70184;DHT22;57554;51.546;6.776;2023-08-21T05:55:50;20.00;67.30
70184;DHT22;57554;51.546;6.776;2023-08-21T05:58:16;20.20;67.50
70184;DHT22;57554;51.546;6.776;2023-08-21T06:00:41;20.30;67.40
70184;DHT22;57554;51.546;6.776;2023-08-21T06:03:07;20.50;67.50
70184;DHT22;57554;51.546;6.776;2023-08-21T06:05:33;20.70;66.90
70184;DHT22;57554;51.546;6.776;2023-08-21T06:07:58;21.00;66.30
70184;DHT22;57554;51.546;6.776;2023-08-21T06:10:24;21.10;65.70
70184;DHT22;57554;51.546;6.776;2023-08-21T06:12:49;21.30;65.40
70184;DHT22;57554;51.546;6.776;2023-08-21T06:15:16;21.40;65.00
70184;DHT22;57554;51.546;6.776;2023-08-21T06:17:42;21.60;64.80
70184;DHT22;57554;51.546;6.776;2023-08-21T06:20:07;21.70;64.40
70184;DHT22;57554;51.546;6.776;2023-08-21T06:22:37;21.80;63.90
70184;DHT22;57554;51.546;6.776;2023-08-21T06:25:03;21.80;63.70
70184;DHT22;57554;51.546;6.776;2023-08-21T06:27:29;21.90;63.50
70184;DHT22;57554;51.546;6.776;2023-08-21T06:29:54;22.00;63.50
70184;DHT22;57554;51.546;6.776;2023-08-21T06:32:20;22.10;63.30
70184;DHT22;57554;51.546;6.776;2023-08-21T06:34:45;22.30;63.30
70184;DHT22;57554;51.546;6.776;2023-08-21T06:37:11;22.50;62.70
70184;DHT22;57554;51.546;6.776;2023-08-21T06:39:38;22.60;62.60
70184;DHT22;57554;51.546;6.776;2023-08-21T06:42:04;22.70;62.20
70184;DHT22;57554;51.546;6.776;2023-08-21T06:44:29;22.80;62.10
70184;DHT22;57554;51.546;6.776;2023-08-21T06:46:55;22.70;61.50
70184;DHT22;57554;51.546;6.776;2023-08-21T06:49:20;22.70;61.40
70184;DHT22;57554;51.546;6.776;2023-08-21T06:51:46;22.80;61.50
70184;DHT22;57554;51.546;6.776;2023-08-21T06:54:11;23.00;61.30
70184;DHT22;57554;51.546;6.776;2023-08-21T06:56:37;23.10;61.50
70184;DHT22;57554;51.546;6.776;2023-08-21T06:59:02;23.20;60.70
70184;DHT22;57554;51.546;6.776;2023-08-21T07:01:28;23.20;60.50
70184;DHT22;57554;51.546;6.776;2023-08-21T07:03:54;23.20;60.20
70184;DHT22;57554;51.546;6.776;2023-08-21T07:06:20;23.20;60.10
70184;DHT22;57554;51.546;6.776;2023-08-21T07:08:46;23.30;60.20
70184;DHT22;57554;51.546;6.776;2023-08-21T07:11:11;23.30;59.90
70184;DHT22;57554;51.546;6.776;2023-08-21T07:13:38;23.40;60.10
70184;DHT22;57554;51.546;6.776;2023-08-21T07:16:03;23.40;60.00
70184;DHT22;57554;51.546;6.776;2023-08-21T07:18:32;23.40;59.80
70184;DHT22;57554;51.546;6.776;2023-08-21T07:20:58;23.50;59.50
70184;DHT22;57554;51.546;6.776;2023-08-21T07:23:23;23.50;59.60
70184;DHT22;57554;51.546;6.776;2023-08-21T07:25:49;23.70;59.60
70184;DHT22;57554;51.546;6.776;2023-08-21T07:28:14;23.80;59.50
70184;DHT22;57554;51.546;6.776;2023-08-21T07:30:40;24.00;59.40
70184;DHT22;57554;51.546;6.776;2023-08-21T07:33:05;24.20;59.00
70184;DHT22;57554;51.546;6.776;2023-08-21T07:35:32;24.50;58.70
70184;DHT22;57554;51.546;6.776;2023-08-21T07:37:58;24.70;58.20
70184;DHT22;57554;51.546;6.776;2023-08-21T07:40:24;24.80;57.40
70184;DHT22;57554;51.546;6.776;2023-08-21T07:42:49;24.80;57.10
70184;DHT22;57554;51.546;6.776;2023-08-21T07:45:15;24.90;57.00
70184;DHT22;57554;51.546;6.776;2023-08-21T07:47:40;25.00;56.80
70184;DHT22;57554;51.546;6.776;2023-08-21T07:50:06;25.10;55.90
70184;DHT22;57554;51.546;6.776;2023-08-21T07:52:33;25.20;56.20
70184;DHT22;57554;51.546;6.776;2023-08-21T07:54:58;25.30;55.40
70184;DHT22;57554;51.546;6.776;2023-08-21T07:57:26;25.40;55.10
70184;DHT22;57554;51.546;6.776;2023-08-21T07:59:52;25.40;55.10
70184;DHT22;57554;51.546;6.776;2023-08-21T08:02:18;25.50;55.60
70184;DHT22;57554;51.546;6.776;2023-08-21T08:04:43;25.80;56.00
70184;DHT22;57554;51.546;6.776;2023-08-21T08:07:09;26.10;55.20
70184;DHT22;57554;51.546;6.776;2023-08-21T08:09:34;26.20;53.90
70184;DHT22;57554;51.546;6.776;2023-08-21T08:12:01;26.20;52.70
70184;DHT22;57554;51.546;6.776;2023-08-21T08:14:26;26.20;52.20
70184;DHT22;57554;51.546;6.776;2023-08-21T08:16:52;26.30;51.60
70184;DHT22;57554;51.546;6.776;2023-08-21T08:19:17;26.50;52.50
70184;DHT22;57554;51.546;6.776;2023-08-21T08:21:43;26.70;51.70
70184;DHT22;57554;51.546;6.776;2023-08-21T08:24:09;26.90;51.40
70184;DHT22;57554;51.546;6.776;2023-08-21T08:26:34;27.10;50.80
70184;DHT22;57554;51.546;6.776;2023-08-21T08:29:00;27.30;48.90
70184;DHT22;57554;51.546;6.776;2023-08-21T08:31:25;27.40;48.60
70184;DHT22;57554;51.546;6.776;2023-08-21T08:33:53;27.50;47.90
70184;DHT22;57554;51.546;6.776;2023-08-21T08:36:19;27.60;48.40
70184;DHT22;57554;51.546;6.776;2023-08-21T08:38:44;27.80;48.90
70184;DHT22;57554;51.546;6.776;2023-08-21T08:41:14;28.00;49.10
70184;DHT22;57554;51.546;6.776;2023-08-21T08:43:44;28.20;47.30
70184;DHT22;57554;51.546;6.776;2023-08-21T08:46:11;28.40;47.50
70184;DHT22;57554;51.546;6.776;2023-08-21T08:48:37;28.50;48.10
70184;DHT22;57554;51.546;6.776;2023-08-21T08:51:04;28.70;47.10
70184;DHT22;57554;51.546;6.776;2023-08-21T08:53:30;28.90;47.30
70184;DHT22;57554;51.546;6.776;2023-08-21T08:55:57;29.10;46.90
70184;DHT22;57554;51.546;6.776;2023-08-21T08:58:23;29.30;45.70
70184;DHT22;57554;51.546;6.776;2023-08-21T09:00:49;29.50;44.50
70184;DHT22;57554;51.546;6.776;2023-08-21T09:03:15;29.60;44.60
70184;DHT22;57554;51.546;6.776;2023-08-21T09:05:41;29.70;44.20
70184;DHT22;57554;51.546;6.776;2023-08-21T09:10:32;29.90;44.60
70184;DHT22;57554;51.546;6.776;2023-08-21T09:12:58;30.10;44.50
70184;DHT22;57554;51.546;6.776;2023-08-21T09:15:30;30.40;43.60
70184;DHT22;57554;51.546;6.776;2023-08-21T09:17:56;30.50;43.50
70184;DHT22;57554;51.546;6.776;2023-08-21T09:20:22;30.70;43.60
70184;DHT22;57554;51.546;6.776;2023-08-21T09:22:54;30.90;43.10
70184;DHT22;57554;51.546;6.776;2023-08-21T09:25:23;31.10;43.00
70184;DHT22;57554;51.546;6.776;2023-08-21T09:27:52;31.40;43.70
70184;DHT22;57554;51.546;6.776;2023-08-21T09:30:19;31.70;42.40
70184;DHT22;57554;51.546;6.776;2023-08-21T09:32:58;31.90;41.60
70184;DHT22;57554;51.546;6.776;2023-08-21T09:35:25;32.20;40.10
70184;DHT22;57554;51.546;6.776;2023-08-21T09:37:52;32.30;39.30
70184;DHT22;57554;51.546;6.776;2023-08-21T09:40:21;32.40;39.70
70184;DHT22;57554;51.546;6.776;2023-08-21T09:42:52;32.40;39.10
70184;DHT22;57554;51.546;6.776;2023-08-21T09:45:25;32.50;39.70
70184;DHT22;57554;51.546;6.776;2023-08-21T09:47:54;32.60;39.20
70184;DHT22;57554;51.546;6.776;2023-08-21T09:50:20;32.80;39.50
70184;DHT22;57554;51.546;6.776;2023-08-21T09:52:46;32.90;39.70
70184;DHT22;57554;51.546;6.776;2023-08-21T09:55:14;33.20;38.90
70184;DHT22;57554;51.546;6.776;2023-08-21T09:57:41;33.50;37.90
70184;DHT22;57554;51.546;6.776;2023-08-21T10:00:08;33.60;37.60
70184;DHT22;57554;51.546;6.776;2023-08-21T10:02:42;33.80;36.80
70184;DHT22;57554;51.546;6.776;2023-08-21T10:05:13;33.90;36.90
70184;DHT22;57554;51.546;6.776;2023-08-21T10:07:41;34.00;37.60
70184;DHT22;57554;51.546;6.776;2023-08-21T10:10:08;34.20;37.20
70184;DHT22;57554;51.546;6.776;2023-08-21T10:12:34;34.40;37.00
70184;DHT22;57554;51.546;6.776;2023-08-21T10:15:00;34.80;36.60
70184;DHT22;57554;51.546;6.776;2023-08-21T10:17:26;35.00;36.40
70184;DHT22;57554;51.546;6.776;2023-08-21T10:19:52;35.20;35.50
70184;DHT22;57554;51.546;6.776;2023-08-21T10:22:38;35.50;36.00
70184;DHT22;57554;51.546;6.776;2023-08-21T10:25:13;35.70;35.60
70184;DHT22;57554;51.546;6.776;2023-08-21T10:27:41;35.90;34.70
70184;DHT22;57554;51.546;6.776;2023-08-21T10:30:15;36.00;33.50
70184;DHT22;57554;51.546;6.776;2023-08-21T10:32:46;36.00;33.30
70184;DHT22;57554;51.546;6.776;2023-08-21T10:35:18;35.90;33.40
70184;DHT22;57554;51.546;6.776;2023-08-21T10:38:12;35.90;33.00
70184;DHT22;57554;51.546;6.776;2023-08-21T10:40:40;36.00;34.10
70184;DHT22;57554;51.546;6.776;2023-08-21T10:46:03;36.10;33.80
70184;DHT22;57554;51.546;6.776;2023-08-21T10:48:29;36.00;33.40
70184;DHT22;57554;51.546;6.776;2023-08-21T10:50:55;35.90;34.30
70184;DHT22;57554;51.546;6.776;2023-08-21T10:53:22;35.80;33.80
70184;DHT22;57554;51.546;6.776;2023-08-21T10:56:01;35.90;33.80
70184;DHT22;57554;51.546;6.776;2023-08-21T10:58:26;35.90;33.60
70184;DHT22;57554;51.546;6.776;2023-08-21T11:00:58;35.90;34.20
70184;DHT22;57554;51.546;6.776;2023-08-21T11:03:24;36.00;34.20
70184;DHT22;57554;51.546;6.776;2023-08-21T11:06:19;36.10;34.00
70184;DHT22;57554;51.546;6.776;2023-08-21T11:08:45;36.10;33.40
70184;DHT22;57554;51.546;6.776;2023-08-21T11:11:11;36.10;33.70
70184;DHT22;57554;51.546;6.776;2023-08-21T11:13:37;36.10;34.30
70184;DHT22;57554;51.546;6.776;2023-08-21T11:16:04;36.00;34.60
70184;DHT22;57554;51.546;6.776;2023-08-21T11:21:07;35.90;34.30
70184;DHT22;57554;51.546;6.776;2023-08-21T11:23:34;35.90;34.30
70184;DHT22;57554;51.546;6.776;2023-08-21T11:26:01;36.00;35.00
70184;DHT22;57554;51.546;6.776;2023-08-21T11:28:29;36.00;34.60
70184;DHT22;57554;51.546;6.776;2023-08-21T11:30:58;36.00;34.90
70184;DHT22;57554;51.546;6.776;2023-08-21T11:33:25;36.00;34.50
70184;DHT22;57554;51.546;6.776;2023-08-21T11:35:51;36.00;35.30
70184;DHT22;57554;51.546;6.776;2023-08-21T11:38:22;36.10;35.50
70184;DHT22;57554;51.546;6.776;2023-08-21T11:41:02;36.20;34.70
70184;DHT22;57554;51.546;6.776;2023-08-21T11:43:37;36.40;34.10
70184;DHT22;57554;51.546;6.776;2023-08-21T11:46:04;36.60;33.10
70184;DHT22;57554;51.546;6.776;2023-08-21T11:48:30;36.60;33.70
70184;DHT22;57554;51.546;6.776;2023-08-21T11:50:56;36.60;33.90
70184;DHT22;57554;51.546;6.776;2023-08-21T11:53:38;36.70;33.20
70184;DHT22;57554;51.546;6.776;2023-08-21T11:56:13;36.60;34.30
70184;DHT22;57554;51.546;6.776;2023-08-21T11:58:43;36.60;34.60
70184;DHT22;57554;51.546;6.776;2023-08-21T12:01:10;36.50;33.40
70184;DHT22;57554;51.546;6.776;2023-08-21T12:03:40;36.50;34.50
70184;DHT22;57554;51.546;6.776;2023-08-21T12:06:11;36.60;33.90
70184;DHT22;57554;51.546;6.776;2023-08-21T12:08:38;36.60;34.30
70184;DHT22;57554;51.546;6.776;2023-08-21T12:11:04;36.60;33.10
70184;DHT22;57554;51.546;6.776;2023-08-21T12:13:30;36.60;32.50
70184;DHT22;57554;51.546;6.776;2023-08-21T12:15:56;36.40;33.30
70184;DHT22;57554;51.546;6.776;2023-08-21T12:18:21;36.20;32.30
70184;DHT22;57554;51.546;6.776;2023-08-21T12:20:47;36.00;33.30
70184;DHT22;57554;51.546;6.776;2023-08-21T12:23:12;35.90;33.20
70184;DHT22;57554;51.546;6.776;2023-08-21T12:25:38;35.90;34.30
70184;DHT22;57554;51.546;6.776;2023-08-21T12:28:05;35.90;33.90
70184;DHT22;57554;51.546;6.776;2023-08-21T12:30:31;36.00;33.80
70184;DHT22;57554;51.546;6.776;2023-08-21T12:32:56;35.90;33.40
70184;DHT22;57554;51.546;6.776;2023-08-21T12:35:22;35.90;34.00
70184;DHT22;57554;51.546;6.776;2023-08-21T12:37:48;35.70;32.90
70184;DHT22;57554;51.546;6.776;2023-08-21T12:40:14;35.40;33.40
70184;DHT22;57554;51.546;6.776;2023-08-21T12:42:39;35.30;34.60
70184;DHT22;57554;51.546;6.776;2023-08-21T12:45:05;35.20;33.50
70184;DHT22;57554;51.546;6.776;2023-08-21T12:47:31;35.00;33.90
70184;DHT22;57554;51.546;6.776;2023-08-21T12:49:56;34.80;35.90
70184;DHT22;57554;51.546;6.776;2023-08-21T12:52:22;34.80;36.40
70184;DHT22;57554;51.546;6.776;2023-08-21T12:54:47;34.80;35.80
70184;DHT22;57554;51.546;6.776;2023-08-21T12:57:13;34.90;34.90
70184;DHT22;57554;51.546;6.776;2023-08-21T12:59:39;34.90;34.90
70184;DHT22;57554;51.546;6.776;2023-08-21T13:02:04;34.80;34.30
70184;DHT22;57554;51.546;6.776;2023-08-21T13:04:30;34.80;35.90
70184;DHT22;57554;51.546;6.776;2023-08-21T13:06:56;34.80;35.00
70184;DHT22;57554;51.546;6.776;2023-08-21T13:09:23;34.80;35.60
70184;DHT22;57554;51.546;6.776;2023-08-21T13:11:50;34.80;35.80
70184;DHT22;57554;51.546;6.776;2023-08-21T13:14:16;34.70;36.10
70184;DHT22;57554;51.546;6.776;2023-08-21T13:16:42;34.70;35.50
70184;DHT22;57554;51.546;6.776;2023-08-21T13:19:07;34.60;35.00
70184;DHT22;57554;51.546;6.776;2023-08-21T13:21:33;34.60;34.80
70184;DHT22;57554;51.546;6.776;2023-08-21T13:23:58;34.50;35.40
70184;DHT22;57554;51.546;6.776;2023-08-21T13:26:24;34.30;35.40
70184;DHT22;57554;51.546;6.776;2023-08-21T13:28:51;34.10;36.00
70184;DHT22;57554;51.546;6.776;2023-08-21T13:31:17;34.00;36.30
70184;DHT22;57554;51.546;6.776;2023-08-21T13:33:49;33.80;36.60
70184;DHT22;57554;51.546;6.776;2023-08-21T13:36:15;33.70;36.30
70184;DHT22;57554;51.546;6.776;2023-08-21T13:38:42;33.50;36.70
70184;DHT22;57554;51.546;6.776;2023-08-21T13:41:08;33.40;35.90
70184;DHT22;57554;51.546;6.776;2023-08-21T13:43:35;33.40;37.20
70184;DHT22;57554;51.546;6.776;2023-08-21T13:46:01;33.30;36.30
70184;DHT22;57554;51.546;6.776;2023-08-21T13:48:26;33.30;37.60
70184;DHT22;57554;51.546;6.776;2023-08-21T13:50:52;33.30;37.70
70184;DHT22;57554;51.546;6.776;2023-08-21T13:53:17;33.20;37.80
70184;DHT22;57554;51.546;6.776;2023-08-21T13:55:43;33.10;37.60
70184;DHT22;57554;51.546;6.776;2023-08-21T13:58:08;33.00;37.90
70184;DHT22;57554;51.546;6.776;2023-08-21T14:00:34;33.00;38.50
70184;DHT22;57554;51.546;6.776;2023-08-21T14:03:00;32.90;38.50
70184;DHT22;57554;51.546;6.776;2023-08-21T14:05:25;32.80;38.60
70184;DHT22;57554;51.546;6.776;2023-08-21T14:07:53;32.70;39.10
70184;DHT22;57554;51.546;6.776;2023-08-21T14:10:18;32.60;38.00
70184;DHT22;57554;51.546;6.776;2023-08-21T14:12:44;32.50;38.00
70184;DHT22;57554;51.546;6.776;2023-08-21T14:15:10;32.30;38.40
70184;DHT22;57554;51.546;6.776;2023-08-21T14:17:36;32.20;38.60
70184;DHT22;57554;51.546;6.776;2023-08-21T14:20:02;32.10;37.90
70184;DHT22;57554;51.546;6.776;2023-08-21T14:22:28;32.00;37.80
70184;DHT22;57554;51.546;6.776;2023-08-21T14:24:54;31.90;38.00
70184;DHT22;57554;51.546;6.776;2023-08-21T14:27:19;31.90;38.40
70184;DHT22;57554;51.546;6.776;2023-08-21T14:29:45;31.80;38.90
70184;DHT22;57554;51.546;6.776;2023-08-21T14:32:13;31.70;39.10
70184;DHT22;57554;51.546;6.776;2023-08-21T14:34:39;31.70;39.40
70184;DHT22;57554;51.546;6.776;2023-08-21T14:37:04;31.70;39.50
70184;DHT22;57554;51.546;6.776;2023-08-21T14:39:30;31.60;39.40
70184;DHT22;57554;51.546;6.776;2023-08-21T14:41:57;31.70;39.60
70184;DHT22;57554;51.546;6.776;2023-08-21T14:44:23;31.70;39.20
70184;DHT22;57554;51.546;6.776;2023-08-21T14:46:49;31.80;38.40
70184;DHT22;57554;51.546;6.776;2023-08-21T14:49:15;31.80;39.10
70184;DHT22;57554;51.546;6.776;2023-08-21T14:51:43;31.80;39.30
70184;DHT22;57554;51.546;6.776;2023-08-21T14:54:09;31.70;39.60
70184;DHT22;57554;51.546;6.776;2023-08-21T14:56:35;31.60;39.70
70184;DHT22;57554;51.546;6.776;2023-08-21T14:59:00;31.50;39.60
70184;DHT22;57554;51.546;6.776;2023-08-21T15:01:27;31.60;38.90
70184;DHT22;57554;51.546;6.776;2023-08-21T15:03:52;31.50;39.50
70184;DHT22;57554;51.546;6.776;2023-08-21T15:06:18;31.60;39.30
70184;DHT22;57554;51.546;6.776;2023-08-21T15:08:43;31.50;39.40
70184;DHT22;57554;51.546;6.776;2023-08-21T15:11:09;31.50;39.00
70184;DHT22;57554;51.546;6.776;2023-08-21T15:13:37;31.50;39.20
70184;DHT22;57554;51.546;6.776;2023-08-21T15:16:03;31.50;39.80
70184;DHT22;57554;51.546;6.776;2023-08-21T15:18:28;31.60;40.40
70184;DHT22;57554;51.546;6.776;2023-08-21T15:20:54;31.70;40.40
70184;DHT22;57554;51.546;6.776;2023-08-21T15:23:20;31.70;39.80
70184;DHT22;57554;51.546;6.776;2023-08-21T15:25:45;31.70;38.40
70184;DHT22;57554;51.546;6.776;2023-08-21T15:28:11;31.50;38.30
70184;DHT22;57554;51.546;6.776;2023-08-21T15:30:36;31.30;38.70
70184;DHT22;57554;51.546;6.776;2023-08-21T15:33:03;31.10;38.60
70184;DHT22;57554;51.546;6.776;2023-08-21T15:35:29;31.10;38.80
70184;DHT22;57554;51.546;6.776;2023-08-21T15:37:54;31.10;39.00